createdAt,value
2023-01-18T00:01:04.777Z,91866.19
2023-01-18T00:03:34.915Z,91861.16
2023-01-18T00:06:03.946Z,91871.56
2023-01-18T00:08:32.512Z,91891.69
2023-01-18T00:11:12.164Z,91890.38
2023-01-18T00:13:39.904Z,91886.66
2023-01-18T00:16:11.163Z,91891.75
2023-01-18T00:18:38.402Z,91875.75
2023-01-18T00:21:10.705Z,91886.47
2023-01-18T00:23:38.371Z,91885.84
2023-01-18T00:26:10.848Z,91890.03
2023-01-18T00:28:38.452Z,91890.06
2023-01-18T00:31:20.190Z,91893.03
2023-01-18T00:33:49.569Z,91877.47
2023-01-18T00:36:17.181Z,91877.94
2023-01-18T00:38:44.319Z,91892.84
2023-01-18T00:41:11.106Z,91892.97
2023-01-18T00:43:41.126Z,91885.66
2023-01-18T00:46:09.171Z,91883.09
2023-01-18T00:48:36.401Z,91878.13
2023-01-18T00:51:03.346Z,91877.19
2023-01-18T00:53:30.465Z,91882.31
2023-01-18T00:55:57.698Z,91881.03
2023-01-18T00:58:24.817Z,91879.97
2023-01-18T01:00:53.456Z,91887.16
2023-01-18T01:03:21.049Z,91879.53
2023-01-18T01:06:06.711Z,91887.09
2023-01-18T01:08:33.882Z,91886.88
2023-01-18T01:11:12.577Z,91876.63
2023-01-18T01:13:58.147Z,91889.16
2023-01-18T01:16:43.319Z,91891.81
2023-01-18T01:19:28.537Z,91883.78
2023-01-18T01:22:13.850Z,91903.28
2023-01-18T01:24:59.119Z,91879.88
2023-01-18T01:27:26.381Z,91883.22
2023-01-18T01:29:53.140Z,91897.94
2023-01-18T01:32:20.266Z,91910.19
2023-01-18T01:34:46.929Z,91909.41
2023-01-18T01:37:13.629Z,91917.78
2023-01-18T01:39:40.406Z,91912.72
2023-01-18T01:42:12.483Z,91897.97
2023-01-18T01:44:46.630Z,91910.59
2023-01-18T01:47:24.953Z,91925.44
2023-01-18T01:49:57.506Z,91920.53
2023-01-18T01:52:30.494Z,91917.69
2023-01-18T01:55:02.840Z,91927.38
2023-01-18T01:57:34.633Z,91924.66
2023-01-18T02:00:07.841Z,91923.59
2023-01-18T02:02:42.716Z,91928.56
2023-01-18T02:05:12.786Z,91941.00
2023-01-18T02:07:40.111Z,91932.41
2023-01-18T02:10:07.710Z,91936.97
2023-01-18T02:12:36.975Z,91936.88
2023-01-18T02:15:04.617Z,91939.94
2023-01-18T02:17:43.522Z,91955.94
2023-01-18T02:20:28.848Z,91959.78
2023-01-18T02:23:17.160Z,91942.84
2023-01-18T02:26:29.383Z,91964.28
2023-01-18T02:29:20.461Z,91961.72
2023-01-18T02:32:03.391Z,91973.22
2023-01-18T02:34:50.515Z,91976.50
2023-01-18T02:37:20.906Z,91975.66
2023-01-18T02:40:12.340Z,91969.88
2023-01-18T02:43:00.214Z,91956.88
2023-01-18T02:45:52.249Z,91959.09
2023-01-18T02:48:22.454Z,91953.50
2023-01-18T02:50:49.739Z,91963.72
2023-01-18T02:53:17.395Z,91964.13
2023-01-18T02:56:01.655Z,91967.94
2023-01-18T02:58:34.110Z,91971.41
2023-01-18T03:01:15.800Z,91975.25
2023-01-18T03:03:46.962Z,91966.81
2023-01-18T03:06:14.188Z,91967.56
2023-01-18T03:08:54.032Z,91973.28
2023-01-18T03:12:02.282Z,91962.84
2023-01-18T03:14:46.819Z,91961.78
2023-01-18T03:17:23.180Z,91973.69
2023-01-18T03:20:09.965Z,91973.31
2023-01-18T03:22:57.181Z,91978.97
2023-01-18T03:25:36.398Z,91976.00
2023-01-18T03:28:29.198Z,91971.81
2023-01-18T03:31:18.905Z,91976.41
2023-01-18T03:33:52.994Z,91973.25
2023-01-18T03:36:22.523Z,91955.34
2023-01-18T03:38:55.118Z,91958.50
2023-01-18T03:41:26.616Z,91944.53
2023-01-18T03:43:58.407Z,91950.22
2023-01-18T03:46:29.287Z,91941.28
2023-01-18T03:48:56.958Z,91938.09
2023-01-18T03:51:54.058Z,91928.38
2023-01-18T03:54:25.531Z,91940.66
2023-01-18T03:56:58.963Z,91949.03
2023-01-18T03:59:33.067Z,91941.25
2023-01-18T04:02:00.256Z,91932.22
2023-01-18T04:04:26.913Z,91947.84
2023-01-18T04:06:53.608Z,91937.28
2023-01-18T04:09:20.579Z,91936.66
2023-01-18T04:11:47.270Z,91931.66
2023-01-18T04:14:14.407Z,91949.31
2023-01-18T04:16:41.144Z,91957.47
2023-01-18T04:19:08.798Z,91952.72
2023-01-18T04:21:35.898Z,91952.47
2023-01-18T04:24:03.137Z,91947.16
2023-01-18T04:26:30.097Z,91956.22
2023-01-18T04:28:56.869Z,91959.50
2023-01-18T04:31:23.647Z,91969.50
2023-01-18T04:33:51.824Z,91957.94
2023-01-18T04:36:20.186Z,91951.84
2023-01-18T04:38:47.049Z,91956.69
2023-01-18T04:41:14.074Z,91968.50
2023-01-18T04:43:40.931Z,91968.53
2023-01-18T04:46:07.642Z,91973.34
2023-01-18T04:48:34.660Z,91979.84
2023-01-18T04:51:01.443Z,91977.22
2023-01-18T04:53:28.188Z,91970.50
2023-01-18T04:55:54.884Z,91980.34
2023-01-18T04:58:21.638Z,91980.16
2023-01-18T05:00:48.687Z,91974.22
2023-01-18T05:03:16.189Z,91974.91
2023-01-18T05:05:43.128Z,91962.00
2023-01-18T05:08:09.923Z,91978.88
2023-01-18T05:10:36.730Z,91979.44
2023-01-18T05:13:03.793Z,91995.22
2023-01-18T05:15:30.538Z,91998.28
2023-01-18T05:17:57.216Z,92005.72
2023-01-18T05:20:23.981Z,92010.00
2023-01-18T05:22:50.687Z,92009.84
2023-01-18T05:25:17.592Z,92014.94
2023-01-18T05:27:44.681Z,92009.09
2023-01-18T05:30:12.092Z,92003.72
2023-01-18T05:32:39.059Z,92001.78
2023-01-18T05:35:06.271Z,92001.50
2023-01-18T05:37:33.023Z,92009.75
2023-01-18T05:40:00.157Z,92011.75
2023-01-18T05:42:26.927Z,92017.88
2023-01-18T05:44:53.843Z,92011.28
2023-01-18T05:47:20.658Z,92008.53
2023-01-18T05:49:47.322Z,92022.84
2023-01-18T05:52:14.051Z,92024.03
2023-01-18T05:54:40.786Z,92017.38
2023-01-18T05:57:07.785Z,92037.00
2023-01-18T05:59:35.307Z,92040.66
2023-01-18T06:02:04.017Z,92038.56
2023-01-18T06:04:30.876Z,92052.88
2023-01-18T06:06:57.607Z,92039.31
2023-01-18T06:09:24.298Z,92045.69
2023-01-18T06:11:50.991Z,92041.91
2023-01-18T06:14:17.653Z,92044.53
2023-01-18T06:16:44.468Z,92069.41
2023-01-18T06:19:11.618Z,92049.25
2023-01-18T06:21:38.300Z,92056.09
2023-01-18T06:24:05.583Z,92054.03
2023-01-18T06:26:32.231Z,92051.03
2023-01-18T06:28:59.170Z,92048.81
2023-01-18T06:31:27.100Z,92070.00
2023-01-18T06:33:53.828Z,92060.91
2023-01-18T06:36:21.231Z,92073.75
2023-01-18T06:38:48.182Z,92074.72
2023-01-18T06:41:16.023Z,92066.97
2023-01-18T06:43:42.733Z,92069.03
2023-01-18T06:46:11.818Z,92081.78
2023-01-18T06:48:38.720Z,92082.91
2023-01-18T06:51:05.900Z,92085.09
2023-01-18T06:53:32.592Z,92085.97
2023-01-18T06:56:02.147Z,92078.25
2023-01-18T06:58:31.080Z,92086.47
2023-01-18T07:00:59.710Z,92095.97
2023-01-18T07:03:28.333Z,92092.56
2023-01-18T07:05:56.144Z,92096.38
2023-01-18T07:08:23.684Z,92106.00
2023-01-18T07:10:52.605Z,92109.06
2023-01-18T07:13:21.017Z,92118.75
2023-01-18T07:15:54.282Z,92124.06
2023-01-18T07:18:21.067Z,92136.09
2023-01-18T07:20:56.107Z,92131.47
2023-01-18T07:23:22.846Z,92133.34
2023-01-18T07:25:49.902Z,92138.94
2023-01-18T07:28:17.215Z,92146.69
2023-01-18T07:30:45.190Z,92159.81
2023-01-18T07:33:12.457Z,92147.19
2023-01-18T07:35:39.205Z,92166.00
2023-01-18T07:38:07.674Z,92169.66
2023-01-18T07:40:35.060Z,92171.22
2023-01-18T07:43:02.883Z,92184.22
2023-01-18T07:45:30.126Z,92198.25
2023-01-18T07:47:56.872Z,92203.19
2023-01-18T07:50:24.024Z,92205.47
2023-01-18T07:52:51.369Z,92216.44
2023-01-18T07:55:18.670Z,92210.81
2023-01-18T07:57:45.377Z,92210.91
2023-01-18T08:00:14.299Z,92208.59
2023-01-18T08:02:41.809Z,92213.13
2023-01-18T08:05:10.702Z,92207.16
2023-01-18T08:07:37.457Z,92224.09
2023-01-18T08:10:05.600Z,92222.75
2023-01-18T08:12:32.341Z,92252.38
2023-01-18T08:14:59.087Z,92274.00
2023-01-18T08:17:27.957Z,92264.50
2023-01-18T08:19:54.719Z,92223.72
2023-01-18T08:22:22.066Z,92244.69
2023-01-18T08:24:48.824Z,92241.50
2023-01-18T08:27:16.759Z,92242.66
2023-01-18T08:29:43.444Z,92247.69
2023-01-18T08:32:10.237Z,92245.00
2023-01-18T08:34:38.232Z,92259.53
2023-01-18T08:37:05.844Z,92260.31
2023-01-18T08:39:32.541Z,92273.06
2023-01-18T08:41:59.296Z,92276.47
2023-01-18T08:44:26.022Z,92281.34
2023-01-18T08:46:52.719Z,92265.69
2023-01-18T08:49:19.439Z,92278.53
2023-01-18T08:51:46.596Z,92280.13
2023-01-18T08:54:13.609Z,92288.72
2023-01-18T08:56:40.350Z,92285.50
2023-01-18T08:59:11.399Z,92286.47
2023-01-18T09:01:38.658Z,92312.50
2023-01-18T09:04:05.937Z,92315.50
2023-01-18T09:06:33.918Z,92340.97
2023-01-18T09:09:01.804Z,92318.72
2023-01-18T09:11:28.883Z,92336.22
2023-01-18T09:14:01.047Z,92317.13
2023-01-18T09:16:29.519Z,92326.22
2023-01-18T09:18:56.696Z,92330.81
2023-01-18T09:21:24.303Z,92338.47
2023-01-18T09:23:51.230Z,92352.47
2023-01-18T09:26:21.455Z,92366.16
2023-01-18T09:28:52.338Z,92368.84
2023-01-18T09:31:24.909Z,92381.09
2023-01-18T09:33:54.347Z,92380.03
2023-01-18T09:36:32.355Z,92410.69
2023-01-18T09:38:59.471Z,92428.72
2023-01-18T09:41:37.873Z,92432.34
2023-01-18T09:44:26.976Z,92436.13
2023-01-18T09:47:09.332Z,92456.13
2023-01-18T09:49:55.266Z,92448.63
2023-01-18T09:52:29.151Z,92457.72
2023-01-18T09:55:25.992Z,92453.00
2023-01-18T09:57:59.035Z,92464.25
2023-01-18T10:00:33.257Z,92480.41
2023-01-18T10:03:05.332Z,92483.38
2023-01-18T10:05:37.267Z,92457.91
2023-01-18T10:08:14.912Z,92467.19
2023-01-18T10:11:02.680Z,92464.69
2023-01-18T10:13:45.052Z,92478.53
2023-01-18T10:16:16.857Z,92482.66
2023-01-18T10:18:49.786Z,92475.03
2023-01-18T10:21:18.832Z,92499.00
2023-01-18T10:24:22.962Z,92495.03
2023-01-18T10:26:53.540Z,92474.66
2023-01-18T10:29:41.939Z,92472.34
2023-01-18T10:32:13.063Z,92490.09
2023-01-18T10:34:46.726Z,92487.19
2023-01-18T10:37:29.938Z,92485.97
2023-01-18T10:40:03.211Z,92500.38
2023-01-18T10:42:52.429Z,92487.78
2023-01-18T10:45:23.981Z,92486.75
2023-01-18T10:47:53.727Z,92502.16
2023-01-18T10:50:26.361Z,92497.63
2023-01-18T10:52:54.103Z,92504.47
2023-01-18T10:55:21.449Z,92498.66
2023-01-18T10:57:54.935Z,92506.19
2023-01-18T11:00:32.607Z,92497.59
2023-01-18T11:03:02.125Z,92479.41
2023-01-18T11:05:40.055Z,92489.78
2023-01-18T11:08:11.900Z,92509.09
2023-01-18T11:10:39.996Z,92483.22
2023-01-18T11:13:43.795Z,92474.66
2023-01-18T11:16:20.948Z,92492.94
2023-01-18T11:19:06.280Z,92498.16
2023-01-18T11:21:45.955Z,92485.38
2023-01-18T11:24:22.547Z,92501.63
2023-01-18T11:26:55.312Z,92490.13
2023-01-18T11:29:28.491Z,92513.09
2023-01-18T11:31:56.523Z,92499.41
2023-01-18T11:34:43.761Z,92496.91
2023-01-18T11:37:31.245Z,92506.88
2023-01-18T11:39:58.149Z,92496.41
2023-01-18T11:42:30.561Z,92504.81
2023-01-18T11:45:16.277Z,92509.06
2023-01-18T11:47:45.324Z,92492.38
2023-01-18T11:50:28.420Z,92502.50
2023-01-18T11:53:10.695Z,92529.66
2023-01-18T11:55:57.921Z,92521.03
2023-01-18T11:58:29.498Z,92538.28
2023-01-18T12:01:08.287Z,92549.94
2023-01-18T12:04:17.851Z,92543.56
2023-01-18T12:06:47.991Z,92551.38
2023-01-18T12:09:22.250Z,92541.97
2023-01-18T12:12:20.689Z,92568.91
2023-01-18T12:15:13.803Z,92570.16
2023-01-18T12:18:16.825Z,92557.88
2023-01-18T12:20:54.312Z,92578.94
2023-01-18T12:23:53.440Z,92559.13
2023-01-18T12:26:26.301Z,92583.19
2023-01-18T12:29:24.294Z,92599.34
2023-01-18T12:32:15.266Z,92583.72
2023-01-18T12:34:50.333Z,92586.63
2023-01-18T12:37:49.120Z,92597.63
2023-01-18T12:40:43.268Z,92606.06
2023-01-18T12:43:48.361Z,92606.28
2023-01-18T12:46:27.284Z,92616.63
2023-01-18T12:49:19.248Z,92613.94
2023-01-18T12:51:53.738Z,92632.03
2023-01-18T12:54:29.770Z,92618.44
2023-01-18T12:56:58.974Z,92630.69
2023-01-18T12:59:32.790Z,92619.13
2023-01-18T13:02:27.828Z,92617.63
2023-01-18T13:05:06.162Z,92627.38
2023-01-18T13:07:40.041Z,92639.09
2023-01-18T13:10:17.240Z,92636.25
2023-01-18T13:12:44.966Z,92652.03
2023-01-18T13:15:47.553Z,92662.81
2023-01-18T13:18:25.145Z,92647.53
2023-01-18T13:21:20.316Z,92656.25
2023-01-18T13:24:09.072Z,92654.31
2023-01-18T13:26:36.411Z,92650.72
2023-01-18T13:29:30.005Z,92683.13
2023-01-18T13:31:57.690Z,92654.94
2023-01-18T13:34:30.386Z,92678.63
2023-01-18T13:37:13.495Z,92669.63
2023-01-18T13:39:47.551Z,92696.09
2023-01-18T13:42:14.240Z,92686.75
2023-01-18T13:44:44.546Z,92708.50
2023-01-18T13:47:36.122Z,92712.00
2023-01-18T13:50:02.979Z,92709.41
2023-01-18T13:52:30.408Z,92715.13
2023-01-18T13:55:04.075Z,92717.81
2023-01-18T13:57:33.256Z,92729.03
2023-01-18T14:00:01.471Z,92728.06
2023-01-18T14:02:42.775Z,92742.00
2023-01-18T14:05:25.831Z,92728.94
2023-01-18T14:07:58.282Z,92747.81
2023-01-18T14:10:36.460Z,92755.78
2023-01-18T14:13:06.504Z,92757.19
2023-01-18T14:15:42.487Z,92779.41
2023-01-18T14:18:29.882Z,92781.19
2023-01-18T14:21:12.249Z,92784.91
2023-01-18T14:23:57.731Z,92773.41
2023-01-18T14:26:30.231Z,92798.28
2023-01-18T14:29:20.561Z,92806.88
2023-01-18T14:31:51.572Z,92801.72
2023-01-18T14:34:24.783Z,92800.81
2023-01-18T14:36:52.022Z,92812.44
2023-01-18T14:39:18.787Z,92825.72
2023-01-18T14:41:51.264Z,92824.97
2023-01-18T14:44:27.460Z,92839.31
2023-01-18T14:46:58.479Z,92830.16
2023-01-18T14:49:35.559Z,92835.59
2023-01-18T14:52:05.528Z,92833.31
2023-01-18T14:54:33.258Z,92830.69
2023-01-18T14:57:02.625Z,92827.09
2023-01-18T14:59:31.485Z,92842.34
2023-01-18T15:02:17.884Z,92851.31
2023-01-18T15:04:46.539Z,92862.75
2023-01-18T15:07:17.935Z,92868.88
2023-01-18T15:09:45.632Z,92868.00
2023-01-18T15:12:19.556Z,92869.56
2023-01-18T15:14:49.847Z,92864.13
2023-01-18T15:17:22.811Z,92865.75
2023-01-18T15:19:59.769Z,92882.50
2023-01-18T15:22:31.567Z,92879.00
2023-01-18T15:24:59.452Z,92892.19
2023-01-18T15:27:29.428Z,92897.03
2023-01-18T15:29:58.783Z,92899.25
2023-01-18T15:32:36.647Z,92922.78
2023-01-18T15:35:04.352Z,92921.28
2023-01-18T15:37:40.381Z,92913.31
2023-01-18T15:40:13.117Z,92925.03
2023-01-18T15:42:59.135Z,92925.09
2023-01-18T15:45:30.112Z,92921.91
2023-01-18T15:48:00.229Z,92925.50
2023-01-18T15:50:36.365Z,92936.94
2023-01-18T15:53:06.856Z,92932.50
2023-01-18T15:55:41.857Z,92940.09
2023-01-18T15:58:39.525Z,92951.66
2023-01-18T16:01:16.459Z,92952.78
2023-01-18T16:03:50.074Z,92958.44
2023-01-18T16:06:23.315Z,92968.66
2023-01-18T16:09:11.547Z,92965.53
2023-01-18T16:11:47.735Z,92969.94
2023-01-18T16:14:32.480Z,92974.44
2023-01-18T16:17:05.718Z,92978.28
2023-01-18T16:19:51.229Z,92988.53
2023-01-18T16:22:27.138Z,92998.81
2023-01-18T16:25:02.476Z,92995.50
2023-01-18T16:27:31.675Z,93012.00
2023-01-18T16:29:59.795Z,93012.78
2023-01-18T16:32:30.243Z,93008.66
2023-01-18T16:35:12.304Z,93005.78
2023-01-18T16:37:42.065Z,93017.09
2023-01-18T16:40:09.560Z,93032.38
2023-01-18T16:43:07.857Z,93041.78
2023-01-18T16:45:37.280Z,93053.84
2023-01-18T16:48:06.333Z,93058.28
2023-01-18T16:50:33.546Z,93067.34
2023-01-18T16:53:00.449Z,93047.13
2023-01-18T16:55:27.859Z,93052.94
2023-01-18T16:57:54.675Z,93048.88
2023-01-18T17:00:24.215Z,93075.09
2023-01-18T17:02:52.094Z,93063.09
2023-01-18T17:05:19.644Z,93069.97
2023-01-18T17:07:46.531Z,93079.22
2023-01-18T17:10:21.009Z,93074.06
2023-01-18T17:12:47.935Z,93080.16
2023-01-18T17:15:15.254Z,93085.34
2023-01-18T17:17:43.833Z,93081.94
2023-01-18T17:20:23.263Z,93099.13
2023-01-18T17:22:54.245Z,93107.16
2023-01-18T17:25:22.356Z,93111.03
2023-01-18T17:27:50.219Z,93114.69
2023-01-18T17:30:21.445Z,93128.28
2023-01-18T17:32:49.225Z,93111.09
2023-01-18T17:35:19.283Z,93120.44
2023-01-18T17:37:46.208Z,93112.41
2023-01-18T17:40:22.611Z,93126.91
2023-01-18T17:42:49.847Z,93130.38
2023-01-18T17:45:16.832Z,93146.00
2023-01-18T17:47:44.453Z,93147.38
2023-01-18T17:50:14.363Z,93151.41
2023-01-18T17:52:41.740Z,93147.81
2023-01-18T17:55:12.052Z,93160.31
2023-01-18T17:57:39.635Z,93151.13
2023-01-18T18:00:08.480Z,93157.91
2023-01-18T18:02:35.770Z,93171.56
2023-01-18T18:05:04.219Z,93170.69
2023-01-18T18:07:31.267Z,93190.47
2023-01-18T18:10:01.338Z,93174.13
2023-01-18T18:12:30.541Z,93183.16
2023-01-18T18:14:58.664Z,93191.63
2023-01-18T18:17:28.459Z,93190.41
2023-01-18T18:19:55.486Z,93186.25
2023-01-18T18:22:23.376Z,93186.59
2023-01-18T18:24:50.987Z,93191.63
2023-01-18T18:27:18.608Z,93184.72
2023-01-18T18:29:46.043Z,93190.94
2023-01-18T18:32:14.299Z,93199.41
2023-01-18T18:34:41.264Z,93217.69
2023-01-18T18:37:08.389Z,93212.56
2023-01-18T18:39:35.498Z,93224.00
2023-01-18T18:42:02.324Z,93230.19
2023-01-18T18:44:29.039Z,93238.00
2023-01-18T18:46:55.740Z,93253.31
2023-01-18T18:49:22.509Z,93244.41
2023-01-18T18:51:49.487Z,93252.19
2023-01-18T18:54:16.340Z,93254.28
2023-01-18T18:56:44.134Z,93260.94
2023-01-18T18:59:10.927Z,93264.66
2023-01-18T19:01:37.847Z,93257.97
2023-01-18T19:04:05.448Z,93261.56
2023-01-18T19:06:32.321Z,93260.56
2023-01-18T19:08:59.411Z,93279.09
2023-01-18T19:11:26.681Z,93288.78
2023-01-18T19:13:55.821Z,93284.28
2023-01-18T19:16:22.949Z,93285.28
2023-01-18T19:18:50.304Z,93287.03
2023-01-18T19:21:17.265Z,93299.59
2023-01-18T19:23:45.070Z,93300.38
2023-01-18T19:26:12.940Z,93293.84
2023-01-18T19:28:40.749Z,93297.31
2023-01-18T19:31:08.886Z,93303.63
2023-01-18T19:33:36.779Z,93296.72
2023-01-18T19:36:09.656Z,93300.16
2023-01-18T19:38:45.757Z,93302.03
2023-01-18T19:41:14.537Z,93306.38
2023-01-18T19:43:43.170Z,93306.28
2023-01-18T19:46:13.087Z,93315.31
2023-01-18T19:48:40.353Z,93314.47
2023-01-18T19:51:20.739Z,93329.34
2023-01-18T19:53:49.408Z,93315.31
2023-01-18T19:56:16.899Z,93342.31
2023-01-18T19:58:44.340Z,93346.69
2023-01-18T20:01:23.530Z,93342.41
2023-01-18T20:04:01.091Z,93354.84
2023-01-18T20:06:28.209Z,93346.44
2023-01-18T20:08:55.271Z,93353.97
2023-01-18T20:11:22.125Z,93352.66
2023-01-18T20:13:50.634Z,93350.22
2023-01-18T20:16:20.769Z,93362.97
2023-01-18T20:18:49.015Z,93369.69
2023-01-18T20:21:18.508Z,93363.13
2023-01-18T20:23:46.079Z,93371.00
2023-01-18T20:26:18.038Z,93375.56
2023-01-18T20:28:50.046Z,93380.50
2023-01-18T20:31:17.143Z,93383.75
2023-01-18T20:33:46.236Z,93384.50
2023-01-18T20:36:13.701Z,93394.13
2023-01-18T20:38:41.789Z,93391.91
2023-01-18T20:41:09.333Z,93407.63
2023-01-18T20:43:37.006Z,93399.88
2023-01-18T20:46:06.436Z,93409.31
2023-01-18T20:48:35.091Z,93417.97
2023-01-18T20:51:04.471Z,93428.44
2023-01-18T20:53:32.676Z,93434.06
2023-01-18T20:56:27.928Z,93423.97
2023-01-18T20:58:58.129Z,93449.09
2023-01-18T21:01:32.153Z,93436.94
2023-01-18T21:04:01.654Z,93442.81
2023-01-18T21:06:30.295Z,93430.41
2023-01-18T21:08:59.156Z,93426.78
2023-01-18T21:11:26.898Z,93421.34
2023-01-18T21:13:55.674Z,93428.22
2023-01-18T21:16:23.933Z,93425.88
2023-01-18T21:18:53.417Z,93436.72
2023-01-18T21:21:20.462Z,93447.72
2023-01-18T21:23:47.729Z,93430.56
2023-01-18T21:26:15.278Z,93444.53
2023-01-18T21:28:42.008Z,93426.63
2023-01-18T21:31:08.860Z,93432.66
2023-01-18T21:33:35.632Z,93431.75
2023-01-18T21:36:06.521Z,93416.31
2023-01-18T21:38:33.458Z,93415.00
2023-01-18T21:41:20.797Z,93423.72
2023-01-18T21:44:06.652Z,93443.00
2023-01-18T21:46:33.573Z,93444.94
2023-01-18T21:49:07.298Z,93445.06
2023-01-18T21:51:52.846Z,93430.66
2023-01-18T21:54:22.027Z,93442.31
2023-01-18T21:56:50.770Z,93440.28
2023-01-18T21:59:17.447Z,93436.75
2023-01-18T22:01:47.283Z,93443.69
2023-01-18T22:04:34.642Z,93448.75
2023-01-18T22:07:01.814Z,93447.34
2023-01-18T22:09:30.962Z,93463.75
2023-01-18T22:11:58.489Z,93457.25
2023-01-18T22:14:26.013Z,93459.38
2023-01-18T22:16:53.714Z,93470.56
2023-01-18T22:19:20.908Z,93465.81
2023-01-18T22:21:48.262Z,93466.50
2023-01-18T22:24:16.596Z,93471.50
2023-01-18T22:26:44.868Z,93475.69
2023-01-18T22:29:12.383Z,93468.16
2023-01-18T22:31:39.687Z,93470.63
2023-01-18T22:34:07.073Z,93468.38
2023-01-18T22:36:34.255Z,93467.31
2023-01-18T22:39:01.123Z,93470.75
2023-01-18T22:41:28.987Z,93480.56
2023-01-18T22:43:56.558Z,93492.88
2023-01-18T22:46:24.177Z,93486.34
2023-01-18T22:48:51.591Z,93485.41
2023-01-18T22:51:21.198Z,93484.88
2023-01-18T22:53:48.657Z,93488.38
2023-01-18T22:56:22.398Z,93489.34
2023-01-18T22:58:49.962Z,93497.47
2023-01-18T23:01:25.212Z,93496.16
2023-01-18T23:03:53.497Z,93489.56
2023-01-18T23:06:21.211Z,93476.91
2023-01-18T23:08:48.734Z,93496.59
2023-01-18T23:11:21.856Z,93492.91
2023-01-18T23:14:12.601Z,93506.09
2023-01-18T23:16:58.372Z,93506.59
2023-01-18T23:19:26.523Z,93505.22
2023-01-18T23:21:55.901Z,93505.41
2023-01-18T23:24:23.744Z,93499.31
2023-01-18T23:26:51.670Z,93503.56
2023-01-18T23:29:19.038Z,93500.03
2023-01-18T23:31:46.863Z,93511.13
2023-01-18T23:34:13.613Z,93506.81
2023-01-18T23:36:40.396Z,93498.38
2023-01-18T23:39:25.442Z,93513.63
2023-01-18T23:42:10.823Z,93526.31
2023-01-18T23:44:56.450Z,93520.94
2023-01-18T23:47:41.759Z,93536.53
2023-01-18T23:50:27.570Z,93528.50
2023-01-18T23:53:12.859Z,93530.63
2023-01-18T23:55:39.605Z,93537.22
2023-01-18T23:58:06.264Z,93541.53
